SBKP/CPQ METAR and TAF weather

Enter ICAO airport designator
Station Type Date Time Source
SBKP METAR 2019/08/24 07:00 UTC NOAA

SBKP 240700Z 14008KT CAVOK 13/10 Q1021


Station Type Date Time Source
SBKP Decoded METAR 2019/08/24 07:00 UTC NOAA

Station name not available
Aug 24, 2019 - 03:00 AM EDT / 2019.08.24 0700 UTC
Wind: from the SE (140 degrees) at 9 MPH (8 KT):0
Visibility: greater than 7 mile(s):0
Temperature: 55 F (13 C)
Dew Point: 50 F (10 C)
Relative Humidity: 81%
Pressure (altimeter): 30.15 in. Hg (1021 hPa)
ob: SBKP 240700Z 14008KT CAVOK 13/10 Q1021
cycle: 7

Station Type Date Time Source
SBKP TAF 2019/08/24 06:42 UTC NOAA

TAF TAF SBKP 240230Z 2406/2506 14010KT CAVOK TN13/2409Z TX25/2418Z
BECMG 2412/2414 08007KT SCT040
BECMG 2415/2417 20010KT FEW045
BECMG 2420/2422 18010KT CAVOK
RMK PGQ

Example: see airport list